createdAt,value
2022-11-02T00:01:18.767Z,10.03
2022-11-02T00:03:45.013Z,9.94
2022-11-02T00:06:11.256Z,9.84
2022-11-02T00:08:37.497Z,9.89
2022-11-02T00:11:03.722Z,9.91
2022-11-02T00:13:29.965Z,9.97
2022-11-02T00:15:56.220Z,10.01
2022-11-02T00:18:22.440Z,9.19
2022-11-02T00:20:48.668Z,9.55
2022-11-02T00:23:14.910Z,9.53
2022-11-02T00:25:41.153Z,9.27
2022-11-02T00:28:07.396Z,9.54
2022-11-02T00:30:33.632Z,9.73
2022-11-02T00:32:59.875Z,9.67
2022-11-02T00:35:26.124Z,9.68
2022-11-02T00:37:52.350Z,9.71
2022-11-02T00:40:18.573Z,9.45
2022-11-02T00:42:44.794Z,9.65
2022-11-02T00:45:11.026Z,9.64
2022-11-02T00:47:37.263Z,9.70
2022-11-02T00:50:03.485Z,9.74
2022-11-02T00:52:29.727Z,9.52
2022-11-02T00:54:55.961Z,9.66
2022-11-02T00:57:22.200Z,9.80
2022-11-02T00:59:48.444Z,9.60
2022-11-02T01:02:14.778Z,9.63
2022-11-02T01:04:41.123Z,9.66
2022-11-02T01:07:07.363Z,9.68
2022-11-02T01:09:33.608Z,9.53
2022-11-02T01:11:59.831Z,9.46
2022-11-02T01:14:26.082Z,9.38
2022-11-02T01:16:52.325Z,9.44
2022-11-02T01:19:18.566Z,9.32
2022-11-02T01:21:44.810Z,9.46
2022-11-02T01:24:11.047Z,9.48
2022-11-02T01:26:37.384Z,9.47
2022-11-02T01:29:03.609Z,9.36
2022-11-02T01:31:29.834Z,9.49
2022-11-02T01:33:56.071Z,9.36
2022-11-02T01:38:53.408Z,9.49
2022-11-02T01:41:19.686Z,9.60
2022-11-02T01:43:45.946Z,9.72
2022-11-02T01:46:12.175Z,9.80
2022-11-02T01:48:38.421Z,9.75
2022-11-02T01:51:04.656Z,9.77
2022-11-02T01:53:30.876Z,9.89
2022-11-02T01:55:57.105Z,9.86
2022-11-02T01:58:23.335Z,9.73
2022-11-02T02:00:49.562Z,9.80
2022-11-02T02:03:15.802Z,9.83
2022-11-02T02:05:42.045Z,9.79
2022-11-02T02:08:08.658Z,9.86
2022-11-02T02:10:34.898Z,10.02
2022-11-02T02:13:01.140Z,10.08
2022-11-02T02:15:27.392Z,10.11
2022-11-02T02:17:53.627Z,10.15
2022-11-02T02:20:19.872Z,10.20
2022-11-02T02:22:46.090Z,9.65
2022-11-02T02:25:12.328Z,9.19
2022-11-02T02:27:38.557Z,8.72
2022-11-02T02:30:04.789Z,9.14
2022-11-02T02:32:31.036Z,9.29
2022-11-02T02:34:57.272Z,9.37
2022-11-02T02:37:23.515Z,9.41
2022-11-02T02:39:49.758Z,9.31
2022-11-02T02:42:15.988Z,9.31
2022-11-02T02:44:42.235Z,9.19
2022-11-02T02:47:08.471Z,9.38
2022-11-02T02:49:34.698Z,9.03
2022-11-02T02:52:00.937Z,9.25
2022-11-02T02:54:27.184Z,9.16
2022-11-02T02:56:53.414Z,9.15
2022-11-02T02:59:19.651Z,8.96
2022-11-02T03:01:45.996Z,8.87
2022-11-02T03:04:12.269Z,9.09
2022-11-02T03:06:38.501Z,9.23
2022-11-02T03:09:04.733Z,9.24
2022-11-02T03:11:30.973Z,9.33
2022-11-02T03:13:57.207Z,9.32
2022-11-02T03:16:23.433Z,9.35
2022-11-02T03:18:49.644Z,9.40
2022-11-02T03:21:15.880Z,9.35
2022-11-02T03:23:42.286Z,9.17
2022-11-02T03:26:08.533Z,9.12
2022-11-02T03:28:34.770Z,9.16
2022-11-02T03:31:00.993Z,9.05
2022-11-02T03:33:27.240Z,9.12
2022-11-02T03:35:53.472Z,9.23
2022-11-02T03:38:19.695Z,9.01
2022-11-02T03:40:45.935Z,9.11
2022-11-02T03:43:12.167Z,9.21
2022-11-02T03:45:38.382Z,9.32
2022-11-02T03:48:04.753Z,9.36
2022-11-02T03:50:31.106Z,9.36
2022-11-02T03:52:57.324Z,9.31
2022-11-02T03:55:23.537Z,9.32
2022-11-02T03:57:49.780Z,9.25
2022-11-02T04:00:15.997Z,9.28
2022-11-02T04:02:42.253Z,9.31
2022-11-02T04:05:08.510Z,9.28
2022-11-02T04:07:34.740Z,8.99
2022-11-02T04:10:00.965Z,9.23
2022-11-02T04:12:29.941Z,9.28
2022-11-02T04:14:56.201Z,9.39
2022-11-02T04:17:22.476Z,9.16
2022-11-02T04:19:50.029Z,9.03
2022-11-02T04:22:16.516Z,9.06
2022-11-02T04:24:42.811Z,8.95
2022-11-02T04:27:09.065Z,8.95
2022-11-02T04:29:35.286Z,8.89
2022-11-02T04:32:01.515Z,9.01
2022-11-02T04:34:27.772Z,9.01
2022-11-02T04:36:54.015Z,8.95
2022-11-02T04:39:20.247Z,8.96
2022-11-02T04:41:46.476Z,8.95
2022-11-02T04:44:12.728Z,8.96
2022-11-02T04:46:38.959Z,8.90
2022-11-02T04:49:05.189Z,8.86
2022-11-02T04:51:31.414Z,8.59
2022-11-02T04:53:57.642Z,8.43
2022-11-02T04:56:23.879Z,8.56
2022-11-02T04:58:50.102Z,8.75
2022-11-02T05:01:16.439Z,8.71
2022-11-02T05:03:42.738Z,8.34
2022-11-02T05:06:08.960Z,7.66
2022-11-02T05:08:35.195Z,7.78
2022-11-02T05:11:01.428Z,7.85
2022-11-02T05:13:27.665Z,8.14
2022-11-02T05:15:53.901Z,8.29
2022-11-02T05:18:23.067Z,8.29
2022-11-02T05:20:49.294Z,8.36
2022-11-02T05:23:15.517Z,8.34
2022-11-02T05:25:41.761Z,8.35
2022-11-02T05:28:07.985Z,8.43
2022-11-02T05:30:34.243Z,8.53
2022-11-02T05:33:00.580Z,8.47
2022-11-02T05:35:26.870Z,8.52
2022-11-02T05:37:53.106Z,8.56
2022-11-02T05:40:19.339Z,8.57
2022-11-02T05:42:45.643Z,8.51
2022-11-02T05:45:11.901Z,8.60
2022-11-02T05:47:38.113Z,8.57
2022-11-02T05:50:04.353Z,8.61
2022-11-02T05:52:30.609Z,8.60
2022-11-02T05:54:56.833Z,8.70
2022-11-02T05:57:23.070Z,8.64
2022-11-02T05:59:49.609Z,8.73
2022-11-02T06:02:15.916Z,8.59
2022-11-02T06:04:42.146Z,8.60
2022-11-02T06:07:08.392Z,8.69
2022-11-02T06:09:34.644Z,8.68
2022-11-02T06:12:00.867Z,8.73
2022-11-02T06:14:27.224Z,8.68
2022-11-02T06:16:53.615Z,8.86
2022-11-02T06:19:19.844Z,8.83
2022-11-02T06:21:48.424Z,8.91
2022-11-02T06:24:15.014Z,8.87
2022-11-02T06:26:41.289Z,8.96
2022-11-02T06:29:07.816Z,8.90
2022-11-02T06:31:34.377Z,8.90
2022-11-02T06:34:00.663Z,8.90
2022-11-02T06:36:26.896Z,8.92
2022-11-02T06:38:53.168Z,9.05
2022-11-02T06:41:19.443Z,9.02
2022-11-02T06:43:45.835Z,9.19
2022-11-02T06:46:12.132Z,9.23
2022-11-02T06:48:38.396Z,9.28
2022-11-02T06:51:04.644Z,9.35
2022-11-02T06:53:30.915Z,8.86
2022-11-02T06:55:57.270Z,9.09
2022-11-02T06:58:23.641Z,9.22
2022-11-02T07:00:50.048Z,9.52
2022-11-02T07:03:16.376Z,9.72
2022-11-02T07:05:42.623Z,9.87
2022-11-02T07:08:08.857Z,10.02
2022-11-02T07:10:35.097Z,10.07
2022-11-02T07:13:01.478Z,10.18
2022-11-02T07:15:27.910Z,10.32
2022-11-02T07:17:54.245Z,10.50
2022-11-02T07:20:20.472Z,10.43
2022-11-02T07:22:46.887Z,10.58
2022-11-02T07:25:13.352Z,10.57
2022-11-02T07:27:39.804Z,10.79
2022-11-02T07:30:06.071Z,10.86
2022-11-02T07:32:33.324Z,10.84
2022-11-02T07:34:59.623Z,10.78
2022-11-02T07:37:25.840Z,10.84
2022-11-02T07:39:52.095Z,10.88
2022-11-02T07:42:18.386Z,10.91
2022-11-02T07:44:44.665Z,10.95
2022-11-02T07:47:11.014Z,11.06
2022-11-02T07:49:37.286Z,11.13
2022-11-02T07:52:03.583Z,11.17
2022-11-02T07:54:29.860Z,11.18
2022-11-02T07:56:56.110Z,11.22
2022-11-02T07:59:22.347Z,11.13
2022-11-02T08:01:48.638Z,11.07
2022-11-02T08:04:15.006Z,11.01
2022-11-02T08:06:41.287Z,11.08
2022-11-02T08:09:07.501Z,11.16
2022-11-02T08:11:33.783Z,10.83
2022-11-02T08:14:00.015Z,10.80
2022-11-02T08:16:26.261Z,10.11
2022-11-02T08:18:52.471Z,10.19
2022-11-02T08:21:18.712Z,10.64
2022-11-02T08:23:44.977Z,10.84
2022-11-02T08:26:11.310Z,11.04
2022-11-02T08:28:37.628Z,11.18
2022-11-02T08:31:03.860Z,11.17
2022-11-02T08:33:30.181Z,11.39
2022-11-02T08:35:56.403Z,11.37
2022-11-02T08:38:22.628Z,11.29
2022-11-02T08:40:48.980Z,11.35
2022-11-02T08:43:15.208Z,11.50
2022-11-02T08:48:27.775Z,11.65
2022-11-02T08:50:54.001Z,11.96
2022-11-02T08:53:20.233Z,12.03
2022-11-02T08:55:46.471Z,12.06
2022-11-02T08:58:12.722Z,11.90
2022-11-02T09:00:38.967Z,12.03
2022-11-02T09:03:05.336Z,12.18
2022-11-02T09:05:31.620Z,12.28
2022-11-02T09:07:57.853Z,12.30
2022-11-02T09:10:24.078Z,12.17
2022-11-02T09:12:50.331Z,12.12
2022-11-02T09:15:16.537Z,12.28
2022-11-02T09:17:42.770Z,12.43
2022-11-02T09:20:09.031Z,12.44
2022-11-02T09:22:35.277Z,12.51
2022-11-02T09:25:01.521Z,12.72
2022-11-02T09:27:27.743Z,12.77
2022-11-02T09:29:53.974Z,12.42
2022-11-02T09:32:20.197Z,12.76
2022-11-02T09:34:46.431Z,13.05
2022-11-02T09:37:12.694Z,13.30
2022-11-02T09:39:38.952Z,13.51
2022-11-02T09:42:05.187Z,13.54
2022-11-02T09:44:31.401Z,13.51
2022-11-02T09:47:39.628Z,13.60
2022-11-02T09:49:43.817Z,13.55
2022-11-02T09:52:10.038Z,13.61
2022-11-02T09:54:36.302Z,13.62
2022-11-02T09:57:02.550Z,13.62
2022-11-02T09:59:28.763Z,13.47
2022-11-02T10:01:55.165Z,13.53
2022-11-02T10:04:21.381Z,13.46
2022-11-02T10:06:47.614Z,12.80
2022-11-02T10:09:13.862Z,12.73
2022-11-02T10:11:40.093Z,12.11
2022-11-02T10:14:06.329Z,12.24
2022-11-02T10:16:32.535Z,12.52
2022-11-02T10:18:58.774Z,12.61
2022-11-02T10:21:25.146Z,12.52
2022-11-02T10:23:51.525Z,12.21
2022-11-02T10:26:17.743Z,12.64
2022-11-02T10:28:44.040Z,12.95
2022-11-02T10:31:15.388Z,13.10
2022-11-02T10:33:41.848Z,13.11
2022-11-02T10:36:23.434Z,13.11
2022-11-02T10:38:49.680Z,12.98
2022-11-02T10:41:15.915Z,13.31
2022-11-02T10:43:42.147Z,13.05
2022-11-02T10:46:08.376Z,13.27
2022-11-02T10:48:34.638Z,13.15
2022-11-02T10:51:00.869Z,13.44
2022-11-02T10:53:40.571Z,13.67
2022-11-02T10:56:07.962Z,13.76
2022-11-02T10:58:34.189Z,13.86
2022-11-02T11:01:00.521Z,13.98
2022-11-02T11:03:26.832Z,14.19
2022-11-02T11:05:53.072Z,14.37
2022-11-02T11:08:19.313Z,14.38
2022-11-02T11:10:45.575Z,14.49
2022-11-02T11:15:58.060Z,14.81
2022-11-02T11:21:10.517Z,14.48
2022-11-02T11:23:36.751Z,14.56
2022-11-02T11:26:02.981Z,14.47
2022-11-02T11:28:29.220Z,14.58
2022-11-02T11:30:59.875Z,14.52
2022-11-02T11:33:26.651Z,13.91
2022-11-02T11:35:52.922Z,13.25
2022-11-02T11:38:19.176Z,12.89
2022-11-02T11:40:45.455Z,12.48
2022-11-02T11:43:11.692Z,12.91
2022-11-02T11:45:37.912Z,13.00
2022-11-02T11:48:04.345Z,12.43
2022-11-02T11:50:30.897Z,13.04
2022-11-02T11:52:57.344Z,12.82
2022-11-02T11:55:23.593Z,13.20
2022-11-02T11:57:49.817Z,13.36
2022-11-02T12:00:16.082Z,13.52
2022-11-02T12:02:44.745Z,13.51
2022-11-02T12:05:11.280Z,13.70
2022-11-02T12:07:37.501Z,13.86
2022-11-02T12:10:03.724Z,13.88
2022-11-02T12:12:29.963Z,13.85
2022-11-02T12:14:56.220Z,13.07
2022-11-02T12:17:22.455Z,12.95
2022-11-02T12:19:48.677Z,13.08
2022-11-02T12:22:14.908Z,13.15
2022-11-02T12:24:41.291Z,13.37
2022-11-02T12:27:07.530Z,12.95
2022-11-02T12:29:33.785Z,13.16
2022-11-02T12:32:01.011Z,13.38
2022-11-02T12:34:27.431Z,13.58
2022-11-02T12:37:26.592Z,13.77
2022-11-02T12:39:39.868Z,13.76
2022-11-02T12:42:06.090Z,13.29
2022-11-02T12:44:32.352Z,13.32
2022-11-02T12:46:58.593Z,13.33
2022-11-02T12:49:25.145Z,13.53
2022-11-02T12:51:51.445Z,13.45
2022-11-02T12:54:17.661Z,13.67
2022-11-02T12:56:43.936Z,13.83
2022-11-02T12:59:10.149Z,13.80
2022-11-02T13:01:36.539Z,13.74
2022-11-02T13:04:02.905Z,13.71
2022-11-02T13:06:29.284Z,13.92
2022-11-02T13:08:55.557Z,13.96
2022-11-02T13:11:21.860Z,13.89
2022-11-02T13:13:48.118Z,13.97
2022-11-02T13:16:14.342Z,13.71
2022-11-02T13:18:40.583Z,13.81
2022-11-02T13:21:06.817Z,13.78
2022-11-02T13:23:33.047Z,13.76
2022-11-02T13:25:59.290Z,13.74
2022-11-02T13:28:25.550Z,13.82
2022-11-02T13:30:51.779Z,13.62
2022-11-02T13:33:18.044Z,13.56
2022-11-02T13:35:44.272Z,13.41
2022-11-02T13:38:10.495Z,13.27
2022-11-02T13:40:36.868Z,13.00
2022-11-02T13:43:03.409Z,12.62
2022-11-02T13:45:29.933Z,11.94
2022-11-02T13:47:56.195Z,12.39
2022-11-02T13:50:22.432Z,12.45
2022-11-02T13:52:48.661Z,12.60
2022-11-02T13:55:14.897Z,12.69
2022-11-02T13:57:41.114Z,12.72
2022-11-02T14:00:07.341Z,12.74
2022-11-02T14:02:33.612Z,12.66
2022-11-02T14:04:59.985Z,12.72
2022-11-02T14:07:26.224Z,12.61
2022-11-02T14:09:52.440Z,12.54
2022-11-02T14:12:18.662Z,12.62
2022-11-02T14:14:44.899Z,12.62
2022-11-02T14:17:11.206Z,12.67
2022-11-02T14:19:37.428Z,12.58
2022-11-02T14:22:03.664Z,12.37
2022-11-02T14:24:30.056Z,12.41
2022-11-02T14:26:56.321Z,12.44
2022-11-02T14:29:22.714Z,12.37
2022-11-02T14:31:48.968Z,12.37
2022-11-02T14:34:15.215Z,12.40
2022-11-02T14:36:41.452Z,12.46
2022-11-02T14:39:07.686Z,12.43
2022-11-02T14:41:33.909Z,12.41
2022-11-02T14:44:01.691Z,12.38
2022-11-02T14:46:27.922Z,12.31
2022-11-02T14:48:54.176Z,12.05
2022-11-02T14:51:20.403Z,12.18
2022-11-02T14:53:46.647Z,12.13
2022-11-02T14:56:12.895Z,12.03
2022-11-02T14:58:40.459Z,11.89
2022-11-02T15:03:37.854Z,11.75
2022-11-02T15:06:04.334Z,11.76
2022-11-02T15:08:30.565Z,11.68
2022-11-02T15:10:56.867Z,11.68
2022-11-02T15:13:23.093Z,11.68
2022-11-02T15:15:49.319Z,11.77
2022-11-02T15:18:15.553Z,11.74
2022-11-02T15:20:46.060Z,11.83
2022-11-02T15:23:21.096Z,11.80
2022-11-02T15:25:51.274Z,11.70
2022-11-02T15:28:17.503Z,11.65
2022-11-02T15:30:43.767Z,11.59
2022-11-02T15:33:10.270Z,11.55
2022-11-02T15:35:36.665Z,11.47
2022-11-02T15:38:17.103Z,11.53
2022-11-02T15:40:43.985Z,11.13
2022-11-02T15:43:10.224Z,11.03
2022-11-02T15:45:48.928Z,11.00
2022-11-02T15:48:17.982Z,11.02
2022-11-02T15:50:44.224Z,11.02
2022-11-02T15:53:23.013Z,11.12
2022-11-02T15:55:50.164Z,11.10
2022-11-02T15:58:16.391Z,11.09
2022-11-02T16:00:42.741Z,10.96
2022-11-02T16:03:09.096Z,10.89
2022-11-02T16:05:35.387Z,10.86
2022-11-02T16:08:16.903Z,10.85
2022-11-02T16:10:43.155Z,10.75
2022-11-02T16:13:09.396Z,10.80
2022-11-02T16:15:35.635Z,10.77
2022-11-02T16:18:01.969Z,10.72
2022-11-02T16:20:28.305Z,10.69
2022-11-02T16:22:54.559Z,10.66
2022-11-02T16:25:20.786Z,10.65
2022-11-02T16:27:47.025Z,10.59
2022-11-02T16:30:13.263Z,10.61
2022-11-02T16:32:39.498Z,10.27
2022-11-02T16:35:05.764Z,10.44
2022-11-02T16:37:32.178Z,10.40
2022-11-02T16:39:58.401Z,10.44
2022-11-02T16:42:24.627Z,10.39
2022-11-02T16:44:50.913Z,10.29
2022-11-02T16:47:17.167Z,10.27
2022-11-02T16:49:43.473Z,10.31
2022-11-02T16:52:09.737Z,10.20
2022-11-02T16:54:35.971Z,10.16
2022-11-02T16:57:04.039Z,10.24
2022-11-02T16:59:33.515Z,10.13
2022-11-02T17:01:59.918Z,10.12
2022-11-02T17:04:26.324Z,10.08
2022-11-02T17:06:52.563Z,10.12
2022-11-02T17:09:18.790Z,10.01
2022-11-02T17:11:45.061Z,9.97
2022-11-02T17:14:11.441Z,9.98
2022-11-02T17:16:37.668Z,9.81
2022-11-02T17:19:03.903Z,9.95
2022-11-02T17:21:30.141Z,9.84
2022-11-02T17:23:56.359Z,9.76
2022-11-02T17:26:22.594Z,9.79
2022-11-02T17:28:48.830Z,9.86
2022-11-02T17:31:15.111Z,9.77
2022-11-02T17:33:41.348Z,9.93
2022-11-02T17:36:07.595Z,9.99
2022-11-02T17:38:33.833Z,9.94
2022-11-02T17:41:00.057Z,10.09
2022-11-02T17:43:26.274Z,9.96
2022-11-02T17:45:52.503Z,10.04
2022-11-02T17:48:18.708Z,9.79
2022-11-02T17:50:44.930Z,9.80
2022-11-02T17:53:11.164Z,9.82
2022-11-02T17:55:37.412Z,9.69
2022-11-02T17:58:03.956Z,9.72
2022-11-02T18:00:30.400Z,9.72
2022-11-02T18:02:56.641Z,9.68
2022-11-02T18:05:22.871Z,9.68
2022-11-02T18:07:49.108Z,9.55
2022-11-02T18:10:15.346Z,9.60
2022-11-02T18:12:41.557Z,9.54
2022-11-02T18:15:07.807Z,9.53
2022-11-02T18:17:35.165Z,9.45
2022-11-02T18:20:01.495Z,9.33
2022-11-02T18:22:27.742Z,9.42
2022-11-02T18:24:53.968Z,9.35
2022-11-02T18:27:21.641Z,9.42
2022-11-02T18:29:49.856Z,9.38
2022-11-02T18:32:16.101Z,9.40
2022-11-02T18:34:42.334Z,9.54
2022-11-02T18:37:08.554Z,9.57
2022-11-02T18:39:34.788Z,9.66
2022-11-02T18:42:01.021Z,9.27
2022-11-02T18:44:27.257Z,9.12
2022-11-02T18:46:53.483Z,9.33
2022-11-02T18:49:19.711Z,9.49
2022-11-02T18:51:45.958Z,9.30
2022-11-02T18:54:12.325Z,9.38
2022-11-02T18:56:38.573Z,9.38
2022-11-02T18:59:04.819Z,9.37
2022-11-02T19:01:31.126Z,9.51
2022-11-02T19:03:57.402Z,9.39
2022-11-02T19:06:23.642Z,9.22
2022-11-02T19:08:49.864Z,9.18
2022-11-02T19:11:16.103Z,9.22
2022-11-02T19:13:42.346Z,9.18
2022-11-02T19:16:08.581Z,9.32
2022-11-02T19:18:34.821Z,9.20
2022-11-02T19:21:01.055Z,9.24
2022-11-02T19:23:27.276Z,9.16
2022-11-02T19:25:53.520Z,9.30
2022-11-02T19:28:19.770Z,9.13
2022-11-02T19:30:46.002Z,9.26
2022-11-02T19:33:12.239Z,9.33
2022-11-02T19:35:38.474Z,9.60
2022-11-02T19:38:04.697Z,9.66
2022-11-02T19:40:30.939Z,9.57
2022-11-02T19:42:57.196Z,9.58
2022-11-02T19:45:23.496Z,9.58
2022-11-02T19:47:49.774Z,9.49
2022-11-02T19:50:15.997Z,9.41
2022-11-02T19:52:42.228Z,9.35
2022-11-02T19:55:08.457Z,9.49
2022-11-02T19:57:34.707Z,9.39
2022-11-02T20:00:00.921Z,9.47
2022-11-02T20:02:27.202Z,9.47
2022-11-02T20:04:53.465Z,9.46
2022-11-02T20:07:19.707Z,9.48
2022-11-02T20:09:45.922Z,9.52
2022-11-02T20:12:12.159Z,9.54
2022-11-02T20:14:38.464Z,9.57
2022-11-02T20:17:29.738Z,9.57
2022-11-02T20:19:50.996Z,9.53
2022-11-02T20:22:17.229Z,9.59
2022-11-02T20:24:43.472Z,9.50
2022-11-02T20:27:09.716Z,9.57
2022-11-02T20:29:35.961Z,9.45
2022-11-02T20:32:02.208Z,9.38
2022-11-02T20:34:28.425Z,9.36
2022-11-02T20:36:54.704Z,9.43
2022-11-02T20:39:20.938Z,9.45
2022-11-02T20:41:47.207Z,9.41
2022-11-02T20:44:13.438Z,9.40
2022-11-02T20:46:41.901Z,9.39
2022-11-02T20:49:22.720Z,9.36
2022-11-02T20:51:55.452Z,9.31
2022-11-02T20:54:21.684Z,9.25
2022-11-02T20:56:47.922Z,9.30
2022-11-02T20:59:14.167Z,9.23
2022-11-02T21:01:40.572Z,9.15
2022-11-02T21:04:06.874Z,9.11
2022-11-02T21:06:33.136Z,9.16
2022-11-02T21:08:59.395Z,9.11
2022-11-02T21:11:25.629Z,9.16
2022-11-02T21:13:51.870Z,9.10
2022-11-02T21:16:18.084Z,9.11
2022-11-02T21:18:44.361Z,9.06
2022-11-02T21:21:10.580Z,9.08
2022-11-02T21:23:36.812Z,9.00
2022-11-02T21:26:03.048Z,9.04
2022-11-02T21:28:29.323Z,8.99
2022-11-02T21:30:55.593Z,9.06
2022-11-02T21:33:21.806Z,8.78
2022-11-02T21:35:48.055Z,8.83
2022-11-02T21:38:14.279Z,8.86
2022-11-02T21:40:42.632Z,8.95
2022-11-02T21:43:09.344Z,8.90
2022-11-02T21:45:38.069Z,8.73
2022-11-02T21:48:04.526Z,8.72
2022-11-02T21:50:30.806Z,8.67
2022-11-02T21:52:57.059Z,8.67
2022-11-02T21:55:23.313Z,8.94
2022-11-02T21:57:49.551Z,8.76
2022-11-02T22:00:15.807Z,8.73
2022-11-02T22:02:42.091Z,8.73
2022-11-02T22:05:08.388Z,8.63
2022-11-02T22:07:34.627Z,8.67
2022-11-02T22:10:00.887Z,8.68
2022-11-02T22:12:27.152Z,8.57
2022-11-02T22:14:53.377Z,8.72
2022-11-02T22:17:47.818Z,8.89
2022-11-02T22:20:05.822Z,8.83
2022-11-02T22:22:32.054Z,8.99
2022-11-02T22:24:58.290Z,9.08
2022-11-02T22:27:24.509Z,8.94
2022-11-02T22:29:50.751Z,8.99
2022-11-02T22:32:17.001Z,8.93
2022-11-02T22:34:43.235Z,8.96
2022-11-02T22:37:09.465Z,8.92
2022-11-02T22:39:35.684Z,8.96
2022-11-02T22:42:01.906Z,8.90
2022-11-02T22:44:28.136Z,8.93
2022-11-02T22:46:54.364Z,8.90
2022-11-02T22:49:20.593Z,8.91
2022-11-02T22:51:46.823Z,8.79
2022-11-02T22:54:13.037Z,8.84
2022-11-02T22:56:39.267Z,8.82
2022-11-02T22:59:05.512Z,8.88
2022-11-02T23:01:31.908Z,8.75
2022-11-02T23:03:58.192Z,8.88
2022-11-02T23:06:24.441Z,8.84
2022-11-02T23:08:50.679Z,8.87
2022-11-02T23:11:16.917Z,8.83
2022-11-02T23:13:43.170Z,8.74
2022-11-02T23:16:10.932Z,8.69
2022-11-02T23:18:37.169Z,8.55
2022-11-02T23:21:03.398Z,8.59
2022-11-02T23:23:29.633Z,8.54
2022-11-02T23:25:55.880Z,8.57
2022-11-02T23:28:22.115Z,8.68
2022-11-02T23:30:48.357Z,8.63
2022-11-02T23:33:14.594Z,8.71
2022-11-02T23:35:40.827Z,8.63
2022-11-02T23:38:07.056Z,8.49
2022-11-02T23:40:33.311Z,8.55
2022-11-02T23:42:59.538Z,8.52
2022-11-02T23:45:25.763Z,8.60
2022-11-02T23:47:52.013Z,8.61
2022-11-02T23:50:18.247Z,8.57
2022-11-02T23:52:44.469Z,8.60
2022-11-02T23:55:10.712Z,8.47
2022-11-02T23:57:36.963Z,8.63
